ADDS METAR Data INFO
IDs: Format: Raw Decoded Include TAF

Data at: 2051 UTC 24 Jun 2017

METAR for:KX60 (Williston Muni, FL, US)
Text:KX60 242035Z AUTO 06008KT 9SM CLR 35/23 A3004 RMK A01
Temperature: 35.0°C ( 95°F)
Dewpoint: 23.0°C ( 73°F) [RH = 50%]
Pressure (altimeter):30.04 inches Hg (1017.4 mb)
Winds:from the ENE (60 degrees) at 9 MPH (8 knots; 4.1 m/s)
Visibility: 9 sm ( 14 km)
Ceiling:at least 12,000 feet AGL
Clouds:sky clear below 12,000 feet AGL
QC Flag:automated observation with no human augmentation


Page loaded:  20:51 UTC  |   01:51 PM Pacific  |   02:51 PM Mountain  |   03:51 PM Central  |   04:51 PM Eastern

 

ADVISORIES

FORECASTS

FORECASTS

OBSERVATIONS

USER TOOLS

ABOUT US